ADDS METAR Data INFO
IDs: Format: Raw Decoded Include TAF

Data at: 2255 UTC 16 Jan 2018

KM08 162235Z AUTO 30007KT 10SM CLR M10/M18 A3063 RMK A01
KM08 162215Z AUTO 31007KT 10SM CLR M10/M18 A3063 RMK A01
KM08 162155Z AUTO 31007KT 10SM CLR M10/M18 A3062 RMK A01
KM08 162135Z AUTO 30006G14KT 10SM CLR M09/M18 A3061 RMK A01
KM08 162115Z AUTO 30006KT 10SM CLR M09/M18 A3061 RMK A01
KM08 162055Z AUTO 33008KT 10SM CLR M09/M17 A3061 RMK A01
KM08 162035Z AUTO 32006KT 10SM CLR M09/M17 A3061 RMK A01
KM08 162015Z AUTO 32009KT 10SM CLR M09/M17 A3061 RMK A01
KM08 161955Z AUTO 31008KT 10SM CLR M09/M17 A3061 RMK A01
KM08 161935Z AUTO 31007G13KT 10SM CLR M09/M17 A3061 RMK A01
KM08 161915Z AUTO 33007KT 10SM CLR M09/M17 A3061 RMK A01
KM08 161855Z AUTO 30006G13KT 10SM CLR M10/M17 A3061 RMK A01
KM08 161835Z AUTO 31008KT 10SM CLR M10/M16 A3061 RMK A01
KM08 161815Z AUTO 30005G12KT 10SM CLR M10/M16 A3063 RMK A01
KM08 161755Z AUTO VRB06G12KT 10SM CLR M10/M16 A3063 RMK A01
KM08 161735Z AUTO 33010KT 10SM FEW024 M10/M16 A3064 RMK A01
KM08 161715Z AUTO 31007G15KT 10SM BKN024 M10/M16 A3065 RMK A01
KM08 161655Z AUTO 30008G13KT 10SM FEW018 BKN023 M09/M15 A3065 RMK A01
KM08 161635Z AUTO 31010KT 10SM FEW015 BKN023 BKN065 M10/M15 A3065 RMK A01
KM08 161615Z AUTO 31009KT 10SM FEW017 BKN023 BKN065 M09/M14 A3065 RMK A01
KM08 161555Z AUTO VRB06G11KT 10SM OVC022 M09/M14 A3065 RMK A01
KM08 161535Z AUTO 30005G12KT 10SM BKN019 M09/M13 A3065 RMK A01
KM08 161515Z AUTO 33008KT 6SM HZ BKN017 BKN021 M10/M13 A3065 RMK A01
KM08 161455Z AUTO 33005KT 6SM HZ FEW006 SCT016 BKN020 M10/M12 A3064 RMK A01
KM08 161435Z AUTO 34005G12KT 1 1/4SM HZ SCT005 SCT013 BKN022 M10/M12 A3064 RMK A01
KM08 161415Z AUTO VRB06KT 1 3/4SM HZ SCT007 BKN030 OVC045 M10/M12 A3064 RMK A01
KM08 161355Z AUTO 34007KT 1 1/2SM BR SCT003 BKN006 OVC011 M10/M12 A3064 RMK A01
KM08 161335Z AUTO 34008KT 320V020 2 1/2SM HZ FEW006 BKN009 OVC017 M10/M13 A3064 RMK A01
KM08 161315Z AUTO 34005G11KT 2 1/2SM HZ SCT007 OVC013 M10/M12 A3062 RMK A01
KM08 161255Z AUTO 33010KT 7SM FEW008 OVC013 M10/M12 A3061 RMK A01
KM08 161235Z AUTO 33006G12KT 4SM BR SCT007 OVC013 M10/M11 A3061 RMK A01
KM08 161215Z AUTO 32006G13KT 2SM BR FEW004 SCT009 OVC014 M09/M11 A3059 RMK A01
KM08 161155Z AUTO 33007G12KT 2SM BR BKN003 OVC008 M09/M11 A3059 RMK A01
KM08 161135Z AUTO 33009KT 1 1/2SM BR OVC003 M09/M11 A3058 RMK A01
KM08 161115Z AUTO 33011KT 2SM BR SCT003 BKN013 OVC027 M09/M11 A3057 RMK A01
KM08 161055Z AUTO 32008KT 2 1/2SM BR SCT003 BKN013 OVC090 M09/M11 A3057 RMK A01
KM08 161035Z AUTO 32011KT 300V360 3SM HZ FEW004 SCT013 BKN032 M08/M11 A3056 RMK A01
KM08 161015Z AUTO 34009G19KT 3SM HZ FEW007 BKN014 OVC055 M08/M11 A3056 RMK A01
KM08 160955Z AUTO 34007G16KT 5SM HZ FEW015 BKN055 OVC065 M08/M10 A3056 RMK A01
KM08 160935Z AUTO 33007G15KT 300V360 9SM BKN013 BKN019 OVC055 M07/M10 A3054 RMK A01
KM08 160915Z AUTO VRB06G11KT 6SM BR OVC012 M07/M08 A3054 RMK A01
KM08 160855Z AUTO 32010G15KT 6SM BR OVC014 M06/M08 A3052 RMK A01
KM08 160835Z AUTO 32010KT 10SM OVC014 M06/M08 A3052 RMK A01
KM08 160815Z AUTO 33010G18KT 9SM BKN015 OVC023 M06/M08 A3050 RMK A01
KM08 160755Z AUTO 33009G18KT 6SM BR OVC014 M05/M07 A3051 RMK A01
KM08 160735Z AUTO 32010G16KT 4SM BR OVC013 M05/M07 A3050 RMK A01
KM08 160715Z AUTO 33010KT 7SM OVC012 M04/M06 A3049 RMK A01
KM08 160655Z AUTO 32009KT 9SM BKN012 OVC018 M03/M05 A3048 RMK A01
KM08 160635Z AUTO 33007G17KT 290V350 8SM OVC017 M03/M05 A3048 RMK A01
KM08 160615Z AUTO 34009G18KT 2 1/2SM BR OVC015 M03/M05 A3048 RMK A01
KM08 160555Z AUTO 34009KT 2 1/2SM BR FEW003 OVC012 M03/M04 A3047 RMK A01
KM08 160535Z AUTO 32009G15KT 5SM BR OVC010 M02/M04 A3047 RMK A01
KM08 160515Z AUTO 32009KT 3SM BR FEW003 BKN008 OVC014 M02/M03 A3046 RMK A01
KM08 160455Z AUTO 32007KT 1 1/2SM BR BKN003 OVC008 M02/M03 A3045 RMK A01 P0001
KM08 160435Z AUTO 31009G15KT 270V330 1 3/4SM BR OVC005 M02/M03 A3046 RMK A01
KM08 160415Z AUTO 32007G13KT 2SM BR SCT004 BKN008 OVC016 M01/M02 A3046 RMK A01
KM08 160355Z AUTO 32007G12KT 3SM BR BKN008 OVC013 M01/M02 A3044 RMK A01
KM08 160335Z AUTO 31007G12KT 270V340 2SM BR BKN007 BKN013 OVC018 M01/M01 A3045 RMK A01
KM08 160315Z AUTO 32007KT 2SM BR BKN008 OVC011 M00/M01 A3043 RMK A01
KM08 160255Z AUTO 32007KT 2 1/2SM BR BKN005 BKN011 OVC021 M00/M01 A3044 RMK A01 P0001
KM08 160235Z AUTO VRB06KT 1 1/4SM BR BKN003 OVC006 M00/M01 A3043 RMK A01
KM08 160215Z AUTO 32007G12KT 1 3/4SM BR SCT004 BKN011 OVC022 00/M01 A3043 RMK A01
KM08 160155Z AUTO 31006KT 3SM BR SCT013 SCT022 OVC035 01/M01 A3042 RMK A01
KM08 160135Z AUTO 32008G14KT 7SM OVC034 01/M02 A3041 RMK A01
KM08 160115Z AUTO VRB05G12KT 10SM BKN030 OVC039 01/M02 A3040 RMK A01
KM08 160055Z AUTO 32006KT 10SM BKN029 OVC036 01/M02 A3039 RMK A01
KM08 160020Z AUTO 32007KT 10SM FEW037 BKN060 OVC085 02/M02 A3037 RMK A01
KM08 160015Z AUTO 32007KT 10SM FEW037 BKN060 OVC085 02/M02 A3037 RMK A01
KM08 152355Z AUTO VRB06G11KT 10SM BKN039 OVC060 02/M02 A3037 RMK A01
KM08 152335Z AUTO 32006KT 10SM OVC040 02/M03 A3038 RMK A01
KM08 152315Z AUTO 31006KT 10SM OVC041 03/M03 A3038 RMK A01
KM08 152255Z AUTO VRB06G13KT 10SM BKN040 OVC050 03/M03 A3037 RMK A01
KM08 152235Z AUTO 31007KT 10SM BKN044 OVC050 03/M03 A3036 RMK A01
KM08 152215Z AUTO 31007KT 10SM OVC043 04/M04 A3036 RMK A01
KM08 152155Z AUTO 32006KT 10SM OVC045 05/M03 A3034 RMK A01
KM08 152135Z AUTO 31008KT 10SM SCT044 06/M03 A3034 RMK A01
KM08 152115Z AUTO 31008KT 10SM CLR 06/M03 A3034 RMK A01
KM08 152055Z AUTO 32010KT 10SM CLR 07/M03 A3033 RMK A01
KM08 152035Z AUTO 22008KT 10SM CLR 08/M03 A3033 RMK A01
KM08 152015Z AUTO 24008KT 10SM CLR 07/M03 A3033 RMK A01
KM08 151955Z AUTO 24006G11KT 10SM CLR 07/M03 A3032 RMK A01
KM08 151935Z AUTO 22011KT 10SM CLR 07/M04 A3032 RMK A01
KM08 151915Z AUTO 24009G15KT 10SM CLR 07/M04 A3032 RMK A01
KM08 151855Z AUTO 23010KT 10SM CLR 07/M04 A3032 RMK A01
KM08 151835Z AUTO 23011KT 10SM CLR 07/M05 A3033 RMK A01
KM08 151815Z AUTO 19007KT 10SM CLR 07/M05 A3034 RMK A01
KM08 151755Z AUTO 22007G13KT 10SM CLR 06/M05 A3035 RMK A01 P0001
KM08 151735Z AUTO VRB05G10KT 10SM CLR 06/M05 A3037 RMK A01
KM08 151715Z AUTO 23005KT 10SM SCT080 05/M05 A3038 RMK A01
KM08 151655Z AUTO 22007G13KT 10SM OVC080 05/M06 A3039 RMK A01
KM08 151635Z AUTO 20008KT 10SM SCT080 04/M06 A3039 RMK A01
KM08 151615Z AUTO 18007G13KT 10SM CLR 03/M06 A3039 RMK A01
KM08 151555Z AUTO VRB06KT 10SM CLR 01/M06 A3039 RMK A01
KM08 151535Z AUTO 18007KT 160V220 10SM CLR 01/M06 A3039 RMK A01
KM08 151515Z AUTO 19005KT 10SM CLR 01/M06 A3038 RMK A01
KM08 151455Z AUTO 18005KT 10SM CLR 00/M06 A3038 RMK A01
KM08 151435Z AUTO 18006KT 10SM CLR M01/M06 A3038 RMK A01
KM08 151415Z AUTO 18005KT 10SM CLR M02/M06 A3037 RMK A01
KM08 151355Z AUTO VRB04KT 10SM CLR M03/M06 A3037 RMK A01
KM08 151335Z AUTO 18003KT 10SM CLR M03/M06 A3037 RMK A01
KM08 151315Z AUTO 17004KT 10SM CLR M04/M06 A3036 RMK A01
KM08 151255Z AUTO 17004KT 10SM CLR M04/M06 A3037 RMK A01
KM08 151235Z AUTO 18004KT 10SM CLR M04/M06 A3036 RMK A01
KM08 151215Z AUTO 15004KT 10SM CLR M06/M07 A3035 RMK A01
KM08 151155Z AUTO 14004KT 10SM CLR M05/M07 A3036 RMK A01
KM08 151135Z AUTO 00000KT 10SM CLR M05/M07 A3036 RMK A01
KM08 151115Z AUTO 00000KT 10SM CLR M05/M06 A3036 RMK A01